Home

PKWA Terminal Aerodrome Forecast (TAF)small logo


TAF provided by NWS Guam
2014/07/23 06:51
TAF PKWA 230546Z 2306/2406 13008KT P6SM VCSH FEW018 SCT060

      



Site Map | Contact Us | Copyright © 2007 Atmospheric Technology Services Company. All rights reserved.